createdAt,value
2022-12-24T00:01:22.082Z,5.50
2022-12-24T00:03:50.928Z,5.42
2022-12-24T00:06:23.902Z,5.49
2022-12-24T00:08:52.880Z,5.38
2022-12-24T00:11:21.254Z,5.25
2022-12-24T00:13:50.054Z,5.33
2022-12-24T00:16:19.618Z,5.24
2022-12-24T00:18:47.277Z,5.28
2022-12-24T00:21:16.128Z,5.22
2022-12-24T00:23:43.769Z,5.31
2022-12-24T00:26:12.168Z,5.27
2022-12-24T00:28:39.688Z,5.29
2022-12-24T00:31:13.039Z,5.18
2022-12-24T00:33:43.031Z,5.11
2022-12-24T00:36:11.486Z,5.17
2022-12-24T00:38:46.601Z,5.19
2022-12-24T00:41:29.428Z,5.21
2022-12-24T00:44:06.529Z,4.96
2022-12-24T00:46:35.535Z,5.20
2022-12-24T00:49:03.372Z,5.25
2022-12-24T00:51:30.924Z,5.21
2022-12-24T00:54:05.202Z,5.23
2022-12-24T00:56:32.848Z,5.31
2022-12-24T00:59:00.390Z,5.41
2022-12-24T01:01:28.132Z,5.24
2022-12-24T01:04:15.721Z,4.99
2022-12-24T01:06:43.723Z,4.79
2022-12-24T01:09:11.169Z,4.78
2022-12-24T01:11:39.434Z,4.78
2022-12-24T01:14:07.872Z,4.72
2022-12-24T01:16:35.340Z,4.89
2022-12-24T01:19:02.658Z,4.95
2022-12-24T01:21:30.199Z,4.97
2022-12-24T01:23:57.690Z,4.97
2022-12-24T01:26:26.121Z,5.03
2022-12-24T01:28:53.935Z,5.00
2022-12-24T01:31:21.644Z,5.00
2022-12-24T01:33:50.371Z,4.93
2022-12-24T01:36:20.064Z,4.99
2022-12-24T01:38:47.184Z,4.95
2022-12-24T01:41:40.694Z,4.93
2022-12-24T01:44:31.527Z,4.95
2022-12-24T01:47:14.762Z,5.00
2022-12-24T01:49:52.788Z,4.99
2022-12-24T01:52:30.525Z,4.92
2022-12-24T01:55:08.290Z,4.94
2022-12-24T01:57:47.040Z,4.97
2022-12-24T02:00:16.347Z,5.00
2022-12-24T02:02:48.208Z,4.93
2022-12-24T02:05:34.695Z,4.99
2022-12-24T02:08:04.065Z,5.06
2022-12-24T02:10:37.567Z,4.98
2022-12-24T02:13:04.991Z,5.03
2022-12-24T02:15:54.106Z,4.89
2022-12-24T02:18:34.658Z,4.96
2022-12-24T02:21:36.520Z,4.96
2022-12-24T02:24:25.221Z,4.89
2022-12-24T02:27:30.406Z,4.88
2022-12-24T02:30:01.700Z,4.90
2022-12-24T02:32:34.555Z,4.90
2022-12-24T02:35:10.471Z,4.91
2022-12-24T02:37:44.840Z,5.00
2022-12-24T02:40:37.176Z,4.98
2022-12-24T02:43:12.146Z,4.96
2022-12-24T02:45:40.990Z,4.93
2022-12-24T02:48:10.714Z,4.90
2022-12-24T02:50:39.906Z,4.90
2022-12-24T02:53:11.088Z,4.95
2022-12-24T02:56:01.200Z,4.95
2022-12-24T02:58:38.514Z,4.93
2022-12-24T03:01:32.147Z,4.90
2022-12-24T03:04:40.772Z,4.74
2022-12-24T03:07:25.370Z,4.74
2022-12-24T03:10:15.065Z,4.83
2022-12-24T03:12:47.370Z,4.85
2022-12-24T03:15:25.732Z,4.85
2022-12-24T03:18:02.828Z,4.78
2022-12-24T03:20:42.444Z,4.92
2022-12-24T03:23:11.979Z,4.90
2022-12-24T03:25:42.582Z,4.85
2022-12-24T03:28:13.244Z,4.84
2022-12-24T03:30:48.667Z,4.83
2022-12-24T03:33:17.492Z,4.88
2022-12-24T03:35:45.868Z,4.76
2022-12-24T03:38:13.003Z,4.86
2022-12-24T03:40:40.455Z,4.78
2022-12-24T03:43:07.979Z,4.68
2022-12-24T03:45:35.521Z,4.84
2022-12-24T03:48:02.743Z,4.84
2022-12-24T03:50:30.486Z,4.73
2022-12-24T03:53:03.800Z,4.62
2022-12-24T03:55:34.547Z,4.65
2022-12-24T03:58:02.199Z,4.64
2022-12-24T04:00:29.424Z,4.65
2022-12-24T04:02:56.974Z,4.59
2022-12-24T04:05:24.304Z,4.56
2022-12-24T04:07:51.806Z,4.69
2022-12-24T04:10:19.422Z,4.76
2022-12-24T04:12:46.666Z,4.68
2022-12-24T04:15:14.115Z,4.64
2022-12-24T04:17:42.644Z,4.58
2022-12-24T04:20:13.437Z,4.68
2022-12-24T04:22:42.922Z,4.75
2022-12-24T04:25:10.783Z,4.77
2022-12-24T04:27:40.070Z,4.88
2022-12-24T04:30:08.106Z,5.13
2022-12-24T04:32:35.604Z,5.33
2022-12-24T04:35:03.122Z,5.49
2022-12-24T04:37:30.402Z,5.60
2022-12-24T04:39:57.921Z,5.69
2022-12-24T04:42:25.379Z,5.77
2022-12-24T04:44:52.761Z,5.87
2022-12-24T04:47:20.288Z,5.96
2022-12-24T04:49:47.649Z,6.10
2022-12-24T04:52:14.693Z,6.10
2022-12-24T04:54:42.224Z,6.06
2022-12-24T04:57:11.686Z,6.13
2022-12-24T04:59:39.283Z,6.12
2022-12-24T05:02:07.820Z,6.16
2022-12-24T05:04:42.350Z,6.14
2022-12-24T05:07:09.813Z,6.21
2022-12-24T05:09:37.308Z,6.25
2022-12-24T05:12:05.411Z,6.32
2022-12-24T05:14:34.842Z,6.33
2022-12-24T05:17:02.037Z,6.48
2022-12-24T05:19:34.425Z,6.57
2022-12-24T05:22:20.247Z,6.59
2022-12-24T05:25:08.548Z,6.71
2022-12-24T05:27:36.423Z,6.77
2022-12-24T05:30:04.212Z,6.90
2022-12-24T05:32:31.646Z,7.00
2022-12-24T05:34:59.235Z,7.16
2022-12-24T05:37:26.698Z,7.28
2022-12-24T05:39:54.078Z,7.45
2022-12-24T05:42:23.259Z,7.54
2022-12-24T05:44:50.681Z,7.59
2022-12-24T05:47:18.135Z,7.69
2022-12-24T05:49:45.715Z,7.76
2022-12-24T05:52:12.773Z,7.75
2022-12-24T05:54:39.993Z,7.75
2022-12-24T05:57:08.437Z,7.82
2022-12-24T05:59:36.039Z,7.85
2022-12-24T06:02:04.560Z,7.91
2022-12-24T06:04:31.926Z,7.94
2022-12-24T06:06:59.293Z,8.02
2022-12-24T06:09:27.789Z,8.11
2022-12-24T06:11:55.204Z,8.21
2022-12-24T06:14:22.379Z,8.12
2022-12-24T06:16:49.911Z,8.15
2022-12-24T06:19:17.156Z,8.16
2022-12-24T06:21:44.596Z,8.18
2022-12-24T06:24:12.076Z,8.16
2022-12-24T06:26:39.478Z,8.13
2022-12-24T06:29:06.940Z,8.18
2022-12-24T06:31:34.456Z,8.12
2022-12-24T06:34:02.938Z,8.16
2022-12-24T06:36:30.929Z,8.16
2022-12-24T06:38:58.457Z,8.12
2022-12-24T06:41:25.852Z,8.09
2022-12-24T06:43:54.211Z,8.11
2022-12-24T06:46:23.352Z,8.08
2022-12-24T06:48:51.069Z,8.07
2022-12-24T06:51:20.229Z,7.98
2022-12-24T06:53:53.863Z,7.93
2022-12-24T06:56:21.441Z,8.04
2022-12-24T06:58:51.058Z,8.07
2022-12-24T07:01:21.344Z,8.08
2022-12-24T07:03:48.999Z,8.13
2022-12-24T07:06:31.350Z,8.21
2022-12-24T07:08:58.938Z,8.25
2022-12-24T07:11:27.460Z,8.24
2022-12-24T07:13:54.639Z,8.30
2022-12-24T07:16:22.254Z,8.27
2022-12-24T07:18:50.593Z,8.25
2022-12-24T07:21:18.059Z,8.35
2022-12-24T07:23:45.470Z,8.34
2022-12-24T07:26:12.988Z,8.36
2022-12-24T07:28:40.449Z,8.37
2022-12-24T07:31:08.898Z,8.41
2022-12-24T07:33:36.385Z,8.39
2022-12-24T07:36:09.384Z,8.38
2022-12-24T07:38:38.574Z,8.42
2022-12-24T07:41:06.040Z,8.45
2022-12-24T07:43:34.853Z,8.52
2022-12-24T07:46:02.739Z,8.51
2022-12-24T07:48:31.855Z,8.50
2022-12-24T07:51:00.200Z,8.54
2022-12-24T07:53:28.978Z,8.64
2022-12-24T07:55:59.151Z,8.66
2022-12-24T07:58:32.497Z,8.68
2022-12-24T08:01:00.876Z,8.68
2022-12-24T08:03:30.441Z,8.68
2022-12-24T08:05:58.887Z,8.71
2022-12-24T08:08:26.477Z,8.61
2022-12-24T08:10:53.995Z,8.69
2022-12-24T08:13:21.247Z,8.75
2022-12-24T08:15:49.789Z,8.73
2022-12-24T08:18:17.212Z,8.75
2022-12-24T08:20:44.643Z,8.64
2022-12-24T08:23:12.213Z,8.68
2022-12-24T08:25:46.883Z,8.69
2022-12-24T08:28:16.157Z,8.70
2022-12-24T08:30:44.081Z,8.64
2022-12-24T08:33:12.525Z,8.63
2022-12-24T08:35:40.529Z,8.67
2022-12-24T08:38:08.159Z,8.59
2022-12-24T08:40:35.493Z,8.57
2022-12-24T08:43:03.252Z,8.60
2022-12-24T08:45:39.648Z,8.58
2022-12-24T08:48:09.944Z,8.56
2022-12-24T08:50:40.991Z,8.49
2022-12-24T08:53:09.700Z,8.46
2022-12-24T08:55:39.790Z,8.44
2022-12-24T08:58:07.451Z,8.42
2022-12-24T09:00:34.962Z,8.42
2022-12-24T09:03:02.562Z,8.36
2022-12-24T09:05:31.682Z,8.35
2022-12-24T09:08:02.097Z,8.33
2022-12-24T09:10:29.236Z,8.34
2022-12-24T09:12:57.765Z,8.35
2022-12-24T09:15:25.126Z,8.35
2022-12-24T09:17:52.645Z,8.37
2022-12-24T09:20:20.037Z,8.26
2022-12-24T09:22:47.533Z,8.25
2022-12-24T09:25:15.071Z,8.27
2022-12-24T09:27:43.413Z,8.33
2022-12-24T09:30:11.265Z,8.37
2022-12-24T09:32:44.595Z,8.36
2022-12-24T09:35:11.990Z,8.44
2022-12-24T09:37:39.437Z,8.34
2022-12-24T09:40:07.312Z,8.27
2022-12-24T09:42:52.263Z,8.20
2022-12-24T09:45:42.422Z,8.16
2022-12-24T09:48:25.446Z,8.12
2022-12-24T09:51:12.033Z,8.09
2022-12-24T09:53:53.325Z,8.07
2022-12-24T09:56:26.050Z,8.07
2022-12-24T09:58:57.483Z,8.17
2022-12-24T10:01:25.404Z,8.13
2022-12-24T10:03:56.275Z,8.14
2022-12-24T10:06:58.905Z,8.13
2022-12-24T10:09:57.595Z,8.09
2022-12-24T10:12:44.431Z,8.12
2022-12-24T10:16:11.361Z,8.10
2022-12-24T10:18:59.145Z,8.13
2022-12-24T10:21:36.604Z,8.18
2022-12-24T10:24:10.643Z,8.16
2022-12-24T10:27:07.274Z,8.23
2022-12-24T10:29:44.198Z,8.22
2022-12-24T10:32:21.593Z,8.14
2022-12-24T10:35:02.471Z,8.20
2022-12-24T10:37:32.026Z,8.09
2022-12-24T10:40:01.381Z,8.09
2022-12-24T10:42:51.649Z,8.04
2022-12-24T10:45:24.267Z,8.26
2022-12-24T10:47:57.858Z,8.20
2022-12-24T10:50:31.290Z,8.17
2022-12-24T10:53:28.777Z,8.04
2022-12-24T10:56:12.566Z,8.13
2022-12-24T10:58:51.458Z,8.22
2022-12-24T11:01:18.844Z,8.29
2022-12-24T11:03:46.166Z,8.28
2022-12-24T11:06:21.453Z,8.13
2022-12-24T11:08:49.876Z,8.12
2022-12-24T11:11:25.384Z,8.03
2022-12-24T11:13:59.857Z,8.16
2022-12-24T11:16:38.179Z,8.18
2022-12-24T11:19:16.206Z,8.04
2022-12-24T11:21:43.471Z,8.00
2022-12-24T11:24:13.770Z,8.00
2022-12-24T11:26:44.445Z,7.93
2022-12-24T11:29:28.686Z,7.87
2022-12-24T11:32:18.998Z,7.85
2022-12-24T11:34:46.200Z,7.91
2022-12-24T11:37:24.762Z,7.80
2022-12-24T11:39:58.629Z,7.79
2022-12-24T11:42:34.055Z,7.75
2022-12-24T11:45:04.625Z,7.80
2022-12-24T11:47:39.271Z,7.80
2022-12-24T11:50:32.461Z,7.87
2022-12-24T11:53:05.178Z,7.92
2022-12-24T11:55:53.805Z,7.91
2022-12-24T11:58:43.055Z,7.89
2022-12-24T12:01:22.744Z,7.92
2022-12-24T12:03:58.034Z,8.01
2022-12-24T12:06:42.377Z,7.86
2022-12-24T12:09:31.663Z,7.93
2022-12-24T12:12:14.681Z,7.92
2022-12-24T12:15:14.152Z,7.95
2022-12-24T12:17:41.562Z,7.90
2022-12-24T12:20:24.778Z,7.99
2022-12-24T12:23:20.849Z,8.02
2022-12-24T12:25:57.925Z,8.04
2022-12-24T12:28:50.122Z,8.07
2022-12-24T12:31:26.812Z,8.16
2022-12-24T12:34:03.297Z,8.11
2022-12-24T12:36:38.210Z,8.16
2022-12-24T12:39:06.857Z,8.09
2022-12-24T12:41:57.844Z,8.09
2022-12-24T12:45:01.817Z,7.92
2022-12-24T12:48:01.551Z,7.89
2022-12-24T12:50:52.084Z,7.99
2022-12-24T12:53:57.407Z,7.87
2022-12-24T12:56:32.657Z,8.00
2022-12-24T12:59:22.119Z,8.02
2022-12-24T13:02:10.229Z,8.07
2022-12-24T13:04:50.127Z,8.05
2022-12-24T13:07:37.799Z,8.10
2022-12-24T13:10:34.340Z,8.19
2022-12-24T13:13:33.096Z,8.24
2022-12-24T13:16:03.632Z,8.25
2022-12-24T13:18:50.566Z,8.19
2022-12-24T13:21:22.128Z,8.15
2022-12-24T13:23:50.477Z,8.10
2022-12-24T13:26:18.992Z,8.02
2022-12-24T13:28:46.568Z,8.01
2022-12-24T13:31:24.916Z,8.10
2022-12-24T13:34:02.438Z,8.01
2022-12-24T13:37:04.940Z,8.10
2022-12-24T13:40:01.035Z,8.27
2022-12-24T13:42:59.409Z,8.29
2022-12-24T13:45:30.242Z,8.14
2022-12-24T13:48:06.687Z,8.09
2022-12-24T13:50:41.676Z,8.07
2022-12-24T13:53:38.714Z,8.25
2022-12-24T13:56:16.999Z,8.10
2022-12-24T13:58:48.683Z,8.04
2022-12-24T14:01:23.271Z,7.96
2022-12-24T14:03:58.395Z,7.93
2022-12-24T14:06:40.759Z,8.09
2022-12-24T14:09:20.450Z,7.89
2022-12-24T14:11:54.465Z,7.98
2022-12-24T14:14:33.862Z,7.87
2022-12-24T14:17:19.998Z,8.12
2022-12-24T14:19:52.105Z,8.27
2022-12-24T14:22:30.631Z,8.24
2022-12-24T14:25:18.028Z,8.18
2022-12-24T14:28:17.719Z,8.11
2022-12-24T14:30:45.187Z,8.17
2022-12-24T14:33:35.275Z,8.16
2022-12-24T14:36:04.864Z,8.12
2022-12-24T14:38:33.909Z,8.06
2022-12-24T14:41:22.638Z,8.06
2022-12-24T14:44:17.120Z,8.03
2022-12-24T14:47:07.515Z,8.07
2022-12-24T14:49:59.119Z,8.09
2022-12-24T14:53:07.201Z,8.07
2022-12-24T14:55:50.345Z,8.06
2022-12-24T14:58:47.772Z,7.92
2022-12-24T15:01:29.668Z,7.92
2022-12-24T15:04:14.309Z,7.84
2022-12-24T15:06:53.509Z,7.83
2022-12-24T15:09:26.603Z,7.81
2022-12-24T15:12:00.607Z,7.83
2022-12-24T15:14:30.648Z,7.69
2022-12-24T15:17:04.510Z,7.63
2022-12-24T15:19:39.113Z,7.63
2022-12-24T15:22:21.825Z,7.59
2022-12-24T15:24:49.432Z,7.67
2022-12-24T15:27:22.719Z,7.98
2022-12-24T15:29:56.911Z,7.94
2022-12-24T15:32:25.158Z,7.77
2022-12-24T15:34:56.097Z,7.91
2022-12-24T15:37:39.992Z,7.97
2022-12-24T15:40:11.493Z,7.63
2022-12-24T15:42:42.957Z,7.44
2022-12-24T15:45:28.397Z,7.23
2022-12-24T15:48:00.904Z,7.19
2022-12-24T15:50:34.065Z,7.33
2022-12-24T15:53:19.504Z,7.42
2022-12-24T15:56:10.397Z,7.48
2022-12-24T15:58:42.080Z,7.50
2022-12-24T16:01:10.461Z,7.26
2022-12-24T16:03:40.851Z,7.02
2022-12-24T16:06:11.681Z,7.07
2022-12-24T16:08:43.715Z,6.89
2022-12-24T16:11:25.554Z,6.91
2022-12-24T16:14:30.598Z,6.96
2022-12-24T16:16:58.958Z,6.90
2022-12-24T16:19:37.675Z,6.99
2022-12-24T16:22:25.209Z,6.88
2022-12-24T16:24:55.948Z,6.69
2022-12-24T16:27:23.461Z,6.63
2022-12-24T16:29:51.760Z,6.49
2022-12-24T16:32:38.361Z,6.69
2022-12-24T16:35:14.227Z,6.64
2022-12-24T16:37:41.827Z,6.60
2022-12-24T16:40:19.405Z,6.48
2022-12-24T16:43:08.144Z,6.45
2022-12-24T16:45:36.932Z,6.49
2022-12-24T16:48:07.676Z,6.31
2022-12-24T16:50:35.810Z,6.35
2022-12-24T16:53:02.999Z,6.29
2022-12-24T16:55:31.516Z,6.18
2022-12-24T16:57:59.754Z,6.14
2022-12-24T17:00:33.553Z,6.15
2022-12-24T17:03:00.916Z,6.16
2022-12-24T17:05:30.417Z,6.14
2022-12-24T17:08:01.771Z,6.07
2022-12-24T17:10:29.850Z,6.04
2022-12-24T17:12:58.252Z,6.06
2022-12-24T17:15:25.508Z,6.22
2022-12-24T17:17:54.815Z,6.18
2022-12-24T17:20:24.419Z,5.98
2022-12-24T17:22:52.340Z,5.90
2022-12-24T17:25:19.999Z,5.97
2022-12-24T17:27:53.451Z,5.94
2022-12-24T17:30:20.988Z,5.90
2022-12-24T17:32:50.256Z,5.89
2022-12-24T17:35:19.903Z,5.91
2022-12-24T17:37:53.491Z,6.35
2022-12-24T17:40:21.757Z,6.64
2022-12-24T17:42:48.929Z,6.61
2022-12-24T17:45:16.479Z,6.51
2022-12-24T17:47:46.149Z,6.40
2022-12-24T17:50:13.831Z,6.43
2022-12-24T17:52:41.003Z,6.32
2022-12-24T17:55:09.557Z,6.34
2022-12-24T17:57:37.269Z,6.21
2022-12-24T18:00:05.448Z,6.28
2022-12-24T18:02:32.924Z,6.28
2022-12-24T18:05:00.629Z,6.22
2022-12-24T18:07:30.173Z,6.16
2022-12-24T18:09:58.588Z,6.07
2022-12-24T18:12:26.193Z,5.85
2022-12-24T18:14:54.640Z,5.80
2022-12-24T18:17:22.305Z,5.85
2022-12-24T18:19:50.099Z,5.78
2022-12-24T18:22:17.466Z,5.81
2022-12-24T18:24:45.918Z,5.86
2022-12-24T18:27:25.766Z,5.86
2022-12-24T18:29:53.272Z,5.95
2022-12-24T18:32:26.864Z,6.00
2022-12-24T18:34:54.071Z,6.11
2022-12-24T18:37:21.289Z,6.19
2022-12-24T18:39:50.667Z,6.28
2022-12-24T18:42:20.191Z,6.33
2022-12-24T18:44:47.415Z,6.48
2022-12-24T18:47:15.239Z,6.57
2022-12-24T18:49:42.523Z,6.63
2022-12-24T18:52:11.603Z,6.63
2022-12-24T18:54:40.528Z,6.67
2022-12-24T18:57:08.005Z,6.71
2022-12-24T18:59:38.242Z,6.71
2022-12-24T19:02:05.699Z,6.59
2022-12-24T19:04:33.484Z,6.59
2022-12-24T19:07:00.859Z,6.55
2022-12-24T19:09:28.245Z,6.62
2022-12-24T19:11:55.695Z,6.64
2022-12-24T19:14:23.174Z,6.63
2022-12-24T19:16:51.651Z,6.68
2022-12-24T19:19:24.285Z,6.68
2022-12-24T19:21:52.180Z,6.58
2022-12-24T19:24:20.697Z,6.50
2022-12-24T19:26:49.014Z,6.49
2022-12-24T19:29:16.587Z,6.40
2022-12-24T19:31:47.556Z,6.52
2022-12-24T19:34:15.196Z,6.26
2022-12-24T19:36:42.690Z,6.36
2022-12-24T19:39:10.059Z,6.24
2022-12-24T19:41:37.691Z,6.19
2022-12-24T19:44:06.048Z,6.19
2022-12-24T19:46:35.146Z,6.23
2022-12-24T19:49:14.649Z,6.30
2022-12-24T19:51:41.896Z,6.35
2022-12-24T19:54:18.764Z,6.49
2022-12-24T19:56:46.982Z,6.41
2022-12-24T19:59:15.356Z,6.42
2022-12-24T20:01:43.212Z,6.46
2022-12-24T20:04:10.908Z,6.40
2022-12-24T20:06:38.225Z,6.46
2022-12-24T20:09:09.041Z,6.44
2022-12-24T20:11:36.833Z,6.55
2022-12-24T20:14:07.249Z,6.62
2022-12-24T20:16:36.110Z,6.68
2022-12-24T20:19:06.914Z,6.75
2022-12-24T20:21:34.756Z,6.69
2022-12-24T20:24:02.341Z,6.69
2022-12-24T20:26:30.659Z,6.63
2022-12-24T20:29:06.580Z,6.75
2022-12-24T20:31:35.155Z,6.75
2022-12-24T20:34:07.663Z,6.72
2022-12-24T20:36:37.500Z,6.76
2022-12-24T20:39:07.452Z,6.77
2022-12-24T20:41:34.826Z,6.71
2022-12-24T20:44:05.083Z,6.76
2022-12-24T20:46:34.227Z,6.71
2022-12-24T20:49:01.481Z,6.73
2022-12-24T20:51:29.521Z,6.74
2022-12-24T20:53:59.378Z,6.72
2022-12-24T20:56:28.862Z,6.63
2022-12-24T20:59:02.605Z,6.68
2022-12-24T21:01:30.593Z,6.67
2022-12-24T21:04:00.684Z,6.75
2022-12-24T21:06:28.014Z,6.72
2022-12-24T21:08:55.222Z,6.76
2022-12-24T21:11:41.738Z,6.72
2022-12-24T21:14:09.973Z,6.61
2022-12-24T21:16:38.535Z,6.53
2022-12-24T21:19:07.084Z,6.40
2022-12-24T21:21:35.071Z,6.53
2022-12-24T21:24:03.669Z,6.54
2022-12-24T21:26:32.137Z,6.58
2022-12-24T21:28:59.961Z,6.38
2022-12-24T21:31:28.607Z,6.38
2022-12-24T21:33:58.131Z,6.47
2022-12-24T21:36:25.672Z,6.34
2022-12-24T21:38:54.449Z,6.31
2022-12-24T21:41:26.257Z,6.36
2022-12-24T21:44:02.134Z,6.47
2022-12-24T21:46:30.744Z,6.53
2022-12-24T21:49:16.679Z,6.51
2022-12-24T21:51:45.246Z,6.48
2022-12-24T21:54:25.632Z,6.37
2022-12-24T21:57:13.111Z,6.32
2022-12-24T21:59:40.790Z,6.32
2022-12-24T22:02:11.506Z,6.18
2022-12-24T22:04:38.763Z,6.24
2022-12-24T22:07:26.185Z,6.45
2022-12-24T22:10:12.073Z,6.45
2022-12-24T22:12:39.427Z,6.40
2022-12-24T22:15:07.473Z,6.28
2022-12-24T22:17:34.840Z,6.29
2022-12-24T22:20:02.451Z,6.34
2022-12-24T22:22:30.526Z,6.27
2022-12-24T22:24:57.886Z,6.19
2022-12-24T22:27:25.306Z,6.15
2022-12-24T22:29:54.791Z,6.24
2022-12-24T22:32:23.855Z,6.33
2022-12-24T22:34:51.343Z,6.30
2022-12-24T22:37:18.987Z,6.06
2022-12-24T22:39:46.364Z,5.80
2022-12-24T22:42:13.927Z,5.53
2022-12-24T22:44:49.111Z,5.54
2022-12-24T22:47:16.534Z,5.66
2022-12-24T22:49:44.968Z,5.72
2022-12-24T22:52:12.075Z,5.67
2022-12-24T22:54:41.600Z,5.79
2022-12-24T22:57:09.994Z,5.73
2022-12-24T22:59:40.223Z,5.55
2022-12-24T23:02:08.466Z,5.47
2022-12-24T23:04:39.140Z,5.39
2022-12-24T23:07:11.443Z,5.26
2022-12-24T23:09:39.837Z,5.25
2022-12-24T23:12:08.145Z,4.89
2022-12-24T23:14:55.081Z,4.46
2022-12-24T23:17:22.908Z,4.64
2022-12-24T23:19:50.514Z,4.52
2022-12-24T23:22:18.969Z,4.44
2022-12-24T23:24:46.514Z,4.25
2022-12-24T23:27:13.987Z,4.28
2022-12-24T23:29:41.506Z,4.28
2022-12-24T23:32:08.971Z,4.02
2022-12-24T23:34:42.413Z,4.06
2022-12-24T23:37:09.954Z,3.89
2022-12-24T23:39:39.399Z,3.65
2022-12-24T23:42:06.836Z,3.64
2022-12-24T23:44:35.423Z,3.29
2022-12-24T23:47:02.926Z,3.31
2022-12-24T23:49:32.393Z,3.16
2022-12-24T23:51:59.562Z,3.14
2022-12-24T23:54:27.742Z,3.19
2022-12-24T23:56:56.137Z,3.04
2022-12-24T23:59:23.689Z,2.89
